Tiempo atmosférico en la estación meteorológica de Cuéllar, Segovia (795 m.)

Fecha
DESCASC
Temp. máxima en grados centígrados (hora)
DESCASC
Temp. mínima en grados centígrados (hora)
DESCASC
Temp. media en grados centígrados
DESCASC
Racha de viento máxima en m/sg (hora)
DESCASC
Velocidad máxima media en intervalos de 10 minutos(hora)
DESCASC
Precipitaciones diarias en mm
DESCASC
Precipitaciones de 00:00 a 06:00 en mm
DESCASC
Precipitaciones de 06:00 a 12:00 en mm
DESCASC
Precipitaciones de 12:00 a 18:00 en mm
DESCASC
Precipitaciones de 18:00 a 24:00 en mm
DESCASC
17-08-2017 35.2 (17:50) 9.1 (07:40) 22.2 6.67 (17:20) 3.89 (21:50) 0 0 0 0 0
16-08-2017 32.5 (18:10) 7.5 (07:30) 20 7.5 (17:20) 4.17 (22:20) 0 0 0 0 0
15-08-2017 32.5 (17:40) 11.6 (00:00) 22.1 8.89 (19:00) 5.28 (00:10) 0 0 0 0 0
14-08-2017 35.1 (15:40) 8.8 (07:20) 21.9 13.89 (18:10) 9.44 (18:20) 0.4 0 0 0 0.4
13-08-2017 34.1 (17:40) 7.1 (00:00) 20.6 9.72 (17:00) 5.28 (03:50) 0 0 0 0 0
12-08-2017 32.1 (18:20) 5.3 (00:00) 18.7 8.33 (13:10) 5.28 (02:00) 0 0 0 0 0
11-08-2017 28.1 (17:20) 5.7 (00:00) 16.9 10.28 (17:40) 6.67 (00:30) 0 0 0 0 0
10-08-2017 24.6 (18:00) 4.6 (00:00) 14.6 10.83 (10:50) 7.78 (10:50) 0 0 0 0 0
09-08-2017 23.3 (17:10) 3.7 (00:00) 13.5 11.67 (21:10) 8.61 (21:10) 0 0 0 0 0
08-08-2017 26.3 (18:00) 9.2 (00:00) 17.7 9.72 (00:10) 6.11 (01:30) 0 0 0 0 0
07-08-2017 31.7 (18:20) 9.7 (00:00) 20.7 10.83 (18:00) 6.94 (18:00) 0 0 0 0 0
06-08-2017 33.6 (18:20) 13.8 (00:00) 23.7 14.72 (01:30) 11.39 (01:30) 0 0 0 0 0
05-08-2017 35.4 (17:40) 10.2 (00:00) 22.8 12.5 (22:20) 9.44 (23:59) 0 0 0 0 0
04-08-2017 36 (18:30) 11.9 (00:00) 23.9 6.94 (20:00) 3.89 (18:10) 0 0 0 0 0
03-08-2017 34.2 (18:20) 7.2 (00:00) 20.7 9.17 (15:40) 5 (16:30) 0 0 0 0 0
02-08-2017 33.3 (16:30) 7 (00:00) 20.1 9.44 (17:20) 5 (15:40) 0 0 0 0 0
01-08-2017 30.6 (18:40) 7.9 (00:00) 19.3 10 (17:10) 5 (18:00) 0 0 0 0 0
31-07-2017 30.6 (16:30) 6.7 (00:00) 18.7 12.5 (16:00) 6.11 (18:50) 0 0 0 0 0
30-07-2017 33.1 (17:50) 11.1 (00:00) 22.1 11.39 (17:30) 6.67 (17:10) 0 0 0 0 0
29-07-2017 34.1 (19:00) 9.5 (00:00) 21.8 10.56 (19:40) 5 (15:10) 0 0 0 0 0
28-07-2017 34 (18:20) 9.1 (00:00) 21.6 8.89 (16:00) 4.72 (16:00) 0 0 0 0 0
27-07-2017 34.5 (18:10) 8.3 (00:00) 21.4 9.72 (16:00) 5.56 (18:40) 0 0 0 0 0
26-07-2017 31.9 (18:30) 8.1 (00:00) 20 9.17 (17:50) 5 (01:00) 0 0 0 0 0
25-07-2017 27.9 (18:00) 10.8 (00:00) 19.3 10.83 (18:20) 7.22 (03:30) 0 0 0 0 0
24-07-2017 30 (19:40) 12.3 (00:00) 21.2 11.11 (23:00) 8.33 (22:30) 0 0 0 0 0
23-07-2017 30.6 (18:20) 7.5 (00:00) 19.1 8.89 (16:00) 5 (18:40) 0 0 0 0 0
22-07-2017 29.7 (18:30) 5.3 (00:00) 17.5 9.44 (18:10) 5 (18:00) 0 0 0 0 0

Gráficas

Temp. máximas Temp. mínimas Temp. medias Precipitaciones Rachas de viento máximas Velocidades máximas media en intervalos de 10 minutos

Datos horarios

Fecha y hora oficial Temperatura (ºC) Velocidad del viento (km/h) Dirección del viento Racha (km/h) Dirección de racha Precipitación (mm) Presión (hPa) Tendencia (hPa) Humedad (%)
2017-08-20 23:00:00 22.4 17 Nordeste 31 Norte 0 -- -- 34
2017-08-20 22:00:00 24.4 24 Norte 32 Norte 0 -- -- 30
2017-08-20 21:00:00 27.6 19 Norte 32 Norte 0 -- -- 24
2017-08-20 20:00:00 31.8 23 Nordeste 31 Norte 0 -- -- 19
2017-08-20 19:00:00 34.1 17 Nordeste 24 Norte 0 -- -- 18
2017-08-20 18:00:00 34.3 15 Nordeste 28 Norte 0 -- -- 18
2017-08-20 17:00:00 34.7 12 Nordeste 21 Nordeste 0 -- -- 18
2017-08-20 16:00:00 33 7 Nordeste 35 Norte 0 -- -- 20
2017-08-20 15:00:00 31.6 8 Nordeste 19 Norte 0 -- -- 21
2017-08-20 14:00:00 30.3 8 Nordeste 20 Nordeste 0 -- -- 21
2017-08-20 13:00:00 29 6 Nordeste 15 Nordeste 0 -- -- 22
2017-08-20 12:00:00 27.5 8 Nordeste 14 Nordeste 0 -- -- 25
2017-08-20 11:00:00 24.7 9 Nordeste 16 Nordeste 0 -- -- 35
2017-08-20 10:00:00 20.1 8 Este 23 Norte 0 -- -- 38
2017-08-20 09:00:00 16.5 17 Norte 25 Norte 0 -- -- 44
2017-08-20 08:00:00 12.1 9 Este 14 Este 0 -- -- 63
2017-08-20 07:00:00 9.9 4 Este 9 Este 0 -- -- 74
2017-08-20 06:00:00 12.5 8 Este 18 Este 0 -- -- 68
2017-08-20 05:00:00 13.5 13 Este 18 Este 0 -- -- 68
2017-08-20 04:00:00 14.3 13 Nordeste 32 Norte 0 -- -- 67
2017-08-20 03:00:00 14.9 23 Norte 35 Norte 0 -- -- 67
2017-08-20 02:00:00 13.7 8 Nordeste 16 Este 0 -- -- 73
2017-08-20 01:00:00 16 8 Este 20 Este 0 -- -- 61
2017-08-20 00:00:00 18 8 Este 36 Norte 0 -- -- 56
2017-08-19 23:00:00 20.9 29 Norte 40 Norte 0 -- -- 48
2017-08-19 22:00:00 23.2 25 Norte 37 Norte 0 -- -- 41
2017-08-19 21:00:00 26.8 14 Norte 24 Norte 0 -- -- 33
2017-08-19 20:00:00 30.1 18 Norte 28 Norte 0 -- -- 30
2017-08-19 19:00:00 30.9 19 Norte 33 Noroeste 0 -- -- 30
2017-08-19 18:00:00 31.8 17 Norte 33 Norte 0 -- -- 30
2017-08-19 17:00:00 31.8 12 Noroeste 24 Norte 0 -- -- 29
2017-08-19 16:00:00 32 12 Noroeste 34 Norte 0 -- -- 29
2017-08-19 15:00:00 30.4 12 Nordeste 25 Nordeste 0 -- -- 32
2017-08-19 14:00:00 29.9 12 Norte 26 Nordeste 0 -- -- 34
2017-08-19 13:00:00 28 14 Nordeste 30 Nordeste 0 -- -- 39
2017-08-19 12:00:00 26 18 Nordeste 30 Nordeste 0 -- -- 44
2017-08-19 11:00:00 24 19 Nordeste 26 Nordeste 0 -- -- 49
2017-08-19 10:00:00 22.2 16 Nordeste 21 Nordeste 0 -- -- 53
2017-08-19 09:00:00 18.8 13 Nordeste 19 Nordeste 0 -- -- 65
2017-08-19 08:00:00 14.9 8 Este 22 Nordeste 0 -- -- 79
2017-08-19 07:00:00 15.5 22 Nordeste 28 Nordeste 0 -- -- 77
2017-08-19 06:00:00 15.8 15 Nordeste 39 Norte 0 -- -- 75
2017-08-19 05:00:00 16.2 27 Norte 39 Norte 0 -- -- 75
2017-08-19 04:00:00 16.6 25 Norte 36 Norte 0 -- -- 74
2017-08-19 03:00:00 17 26 Norte 34 Norte 0 -- -- 73
2017-08-19 02:00:00 17.8 23 Norte 33 Norte 0 -- -- 70
2017-08-19 01:00:00 18.7 20 Nordeste 40 Norte 0 -- -- 67
2017-08-19 00:00:00 20 27 Norte 39 Norte 0 -- -- 64
2017-08-18 23:00:00 22.5 26 Norte 34 Nordeste 0 -- -- 54
2017-08-18 22:00:00 24 19 Nordeste 31 Nordeste 0 -- -- 48
2017-08-18 21:00:00 26.6 23 Nordeste 31 Nordeste 0 -- -- 40
2017-08-18 20:00:00 31.1 13 Noroeste 27 Noroeste 0 -- -- 24
2017-08-18 19:00:00 32.4 17 Noroeste 31 Oeste 0 -- -- 24
2017-08-18 18:00:00 33.4 16 Noroeste 27 Noroeste 0 -- -- 22
2017-08-18 17:00:00 33.3 10 Noroeste 26 Oeste 0 -- -- 23
2017-08-18 16:00:00 32.2 16 Oeste 29 Oeste 0 -- -- 22
2017-08-18 15:00:00 32.3 8 Noroeste 24 Noroeste 0 -- -- 27
2017-08-18 14:00:00 30.8 10 Noroeste 23 Noroeste 0 -- -- 27
2017-08-18 13:00:00 29.5 12 Norte 26 Norte 0 -- -- 32
2017-08-18 12:00:00 27.1 11 Oeste 20 Oeste 0 -- -- 37
2017-08-18 11:00:00 24.3 9 Noroeste 19 Oeste 0 -- -- 43
2017-08-18 10:00:00 22.2 12 Oeste 18 Oeste 0 -- -- 46
2017-08-18 09:00:00 19.7 2 Nordeste 6 Este 0 -- -- 49
2017-08-18 08:00:00 10 6 Este 6 Este 0 -- -- 75
2017-08-18 07:00:00 9.9 2 Este 3 Este 0 -- -- 73
2017-08-18 06:00:00 10.3 0 Calma 2 Sudoeste 0 -- -- 76
2017-08-18 05:00:00 11.9 0 Calma 5 Oeste 0 -- -- 69
2017-08-18 04:00:00 12.9 2 Este 4 Sudeste 0 -- -- 66
2017-08-18 03:00:00 14.1 2 Sudeste 10 Este 0 -- -- 63
2017-08-18 02:00:00 15.6 5 Este 8 Oeste 0 -- -- 58
2017-08-18 01:00:00 16.8 8 Este 9 Este 0 -- -- 52
2017-08-18 00:00:00 18.2 3 Sudeste 7 Sudoeste 0 -- -- 49
2017-08-17 23:00:00 25.1 3 Oeste 15 Noroeste 0 -- -- 35
2017-08-17 22:00:00 26.4 13 Norte 15 Norte 0 -- -- 32
2017-08-17 21:00:00 30.6 7 Oeste 15 Noroeste 0 -- -- 27
2017-08-17 20:00:00 34.1 8 Oeste 21 Oeste 0 -- -- 23
2017-08-17 19:00:00 34.5 11 Oeste 23 Noroeste 0 -- -- 23
2017-08-17 18:00:00 35 12 Noroeste 24 Noroeste 0 -- -- 22
2017-08-17 17:00:00 34.7 9 Noroeste 22 Noroeste 0 -- -- 22
2017-08-17 16:00:00 34.1 8 Noroeste 19 Noroeste 0 -- -- 23
2017-08-17 15:00:00 33.8 6 Noroeste 21 Oeste 0 -- -- 24
2017-08-17 14:00:00 32.7 7 Oeste 19 Oeste 0 -- -- 24
2017-08-17 13:00:00 30.9 9 Noroeste 16 Noroeste 0 -- -- 25
2017-08-17 12:00:00 29 5 Noroeste 10 Noroeste 0 -- -- 28
2017-08-17 11:00:00 26.9 3 Oeste 9 Este 0 -- -- 34
2017-08-17 10:00:00 22.1 5 Sudeste 10 Sudeste 0 -- -- 45
2017-08-17 09:00:00 17.2 2 Sudeste 12 Este 0 -- -- 60
2017-08-17 08:00:00 10.7 7 Este 10 Este 0 -- -- 81
2017-08-17 07:00:00 10.5 3 Este 6 Este 0 -- -- 80
2017-08-17 06:00:00 10.5 3 Este 12 Este 0 -- -- 73
2017-08-17 05:00:00 10.6 7 Este 10 Este 0 -- -- 71
2017-08-17 04:00:00 11.3 6 Este 10 Este 0 -- -- 65
2017-08-17 03:00:00 12.5 6 Nordeste 12 Nordeste 0 -- -- 68
2017-08-17 02:00:00 14.3 4 Este 9 Este 0 -- -- 54
2017-08-17 01:00:00 17.6 4 Este 16 Este 0 -- -- 45
2017-08-17 00:00:00 20.3 6 Este 14 Norte 0 -- -- 39
2017-08-16 23:00:00 22.6 10 Norte 17 Norte 0 -- -- 34
2017-08-16 22:00:00 24.5 15 Norte 17 Norte 0 -- -- 31
2017-08-16 21:00:00 27.9 12 Norte 17 Norte 0 -- -- 30
2017-08-16 20:00:00 30.5 14 Noroeste 21 Noroeste 0 -- -- 26
2017-08-16 19:00:00 32.4 6 Oeste 17 Sudoeste 0 -- -- 21
2017-08-16 18:00:00 31.9 11 Noroeste 27 Sudoeste 0 -- -- 21
2017-08-16 17:00:00 32.2 6 Noroeste 18 Oeste 0 -- -- 22
2017-08-16 16:00:00 31 10 Norte 25 Oeste 0 -- -- 24
2017-08-16 15:00:00 29.5 9 Oeste 25 Oeste 0 -- -- 29
2017-08-16 14:00:00 28.7 11 Noroeste 18 Oeste 0 -- -- 34
2017-08-16 13:00:00 26.8 6 Oeste 14 Oeste 0 -- -- 39
2017-08-16 12:00:00 25.1 5 Noroeste 12 Noroeste 0 -- -- 44
2017-08-16 11:00:00 21.9 9 Noroeste 14 Oeste 0 -- -- 53
2017-08-16 10:00:00 20 5 Sudoeste 9 Sur 0 -- -- 54
2017-08-16 09:00:00 15.4 3 Este 5 Este 0 -- -- 59
2017-08-16 08:00:00 7.9 5 Este 8 Este 0 -- -- 76
2017-08-16 07:00:00 8.2 4 Este 4 Este 0 -- -- 72
2017-08-16 06:00:00 8.8 3 Sudeste 4 Este 0 -- -- 69
2017-08-16 05:00:00 9.6 3 Este 5 Este 0 -- -- 69
2017-08-16 04:00:00 10.1 3 Sudeste 5 Sudeste 0 -- -- 70
2017-08-16 03:00:00 12.2 3 Nordeste 7 Este 0 -- -- 58
2017-08-16 02:00:00 13.9 4 Sudoeste 7 Noroeste 0 -- -- 56
2017-08-16 01:00:00 13.9 0 Calma 6 Sudeste 0 -- -- 55
2017-08-16 00:00:00 15.7 0 Calma 8 Este 0 -- -- 44
2017-08-15 23:00:00 17.4 0 Calma 3 Oeste 0 -- -- 43
2017-08-15 22:00:00 23.1 3 Sudoeste 16 Oeste 0 -- -- 33
2017-08-15 21:00:00 27.6 10 Oeste 25 Oeste 0 -- -- 26
2017-08-15 20:00:00 30.2 14 Oeste 31 Oeste 0 -- -- 24
2017-08-15 19:00:00 31.9 15 Oeste 32 Sudoeste 0 -- -- 22
2017-08-15 18:00:00 31.9 16 Oeste 30 Oeste 0 -- -- 23
2017-08-15 17:00:00 31.5 14 Noroeste 25 Oeste 0 -- -- 24
2017-08-15 16:00:00 31.1 13 Oeste 28 Oeste 0 -- -- 25
2017-08-15 15:00:00 29.3 13 Oeste 29 Sudoeste 0 -- -- 28
2017-08-15 14:00:00 30.3 10 Oeste 30 Noroeste 0 -- -- 31
2017-08-15 13:00:00 28 13 Sudoeste 23 Oeste 0 -- -- 37
2017-08-15 12:00:00 26.7 12 Noroeste 17 Oeste 0 -- -- 39
2017-08-15 11:00:00 25.2 6 Sudoeste 13 Noroeste 0 -- -- 42
2017-08-15 10:00:00 21.9 4 Sudoeste 11 Sur 0 -- -- 53
2017-08-15 09:00:00 17.4 3 Oeste 9 Oeste 0 -- -- 70
2017-08-15 08:00:00 13.1 0 Calma 5 Este 0 -- -- 88
2017-08-15 07:00:00 13 0 Calma 6 Sudeste 0 -- -- 87
2017-08-15 06:00:00 14.5 2 Nordeste 6 Este 0 -- -- 82
2017-08-15 05:00:00 15.4 7 Este 16 Este 0 -- -- 77
2017-08-15 04:00:00 15.8 6 Este 15 Este 0 -- -- 77
2017-08-15 03:00:00 17.3 2 Sudeste 8 Norte 0 -- -- 73
2017-08-15 02:00:00 19.2 6 Oeste 12 Sudoeste 0 -- -- 62
2017-08-15 01:00:00 18.4 7 Nordeste 25 Sudeste 0 -- -- 68
2017-08-15 00:00:00 22.6 17 Sudeste 31 Sudoeste 0.4 -- -- 52
2017-08-14 23:00:00 25.8 15 Sudeste 33 Sur 0 -- -- 40
2017-08-14 22:00:00 25.7 18 Sur 36 Sur 0 -- -- 37
2017-08-14 21:00:00 26.9 23 Sur 39 Sur 0 -- -- 36
2017-08-14 20:00:00 30.1 19 Sur 45 Sur 0 -- -- 29
2017-08-14 19:00:00 30.9 33 Sur 50 Sudoeste 0 -- -- 25
2017-08-14 18:00:00 32.2 24 Sur 42 Sudoeste 0 -- -- 23
2017-08-14 17:00:00 32.5 14 Sudoeste 41 Sudoeste 0 -- -- 23
2017-08-14 16:00:00 33 11 Sur 30 Sudoeste 0 -- -- 22
2017-08-14 15:00:00 33.9 18 Sur 34 Oeste 0 -- -- 21
2017-08-14 14:00:00 34.1 9 Sudoeste 28 Sudoeste 0 -- -- 21
2017-08-14 13:00:00 32.7 12 Sudoeste 26 Sur 0 -- -- 23
2017-08-14 12:00:00 31.3 10 Oeste 18 Sur 0 -- -- 27
2017-08-14 11:00:00 29.1 5 Sudoeste 10 Noroeste 0 -- -- 33
2017-08-14 10:00:00 25.9 2 Sudeste 8 Este 0 -- -- 36
2017-08-14 09:00:00 17.6 5 Este 9 Este 0 -- -- 51
2017-08-14 08:00:00 10.1 6 Este 8 Sudeste 0 -- -- 70
2017-08-14 07:00:00 9.1 5 Sudeste 8 Este 0 -- -- 70
2017-08-14 06:00:00 10.8 6 Este 12 Este 0 -- -- 67
2017-08-14 05:00:00 11.8 4 Este 9 Este 0 -- -- 63
2017-08-14 04:00:00 11 5 Nordeste 9 Sudeste 0 -- -- 59
2017-08-14 03:00:00 12.6 6 Este 8 Este 0 -- -- 56
2017-08-14 02:00:00 12.7 6 Este 12 Este 0 -- -- 54
2017-08-14 01:00:00 13.6 8 Este 12 Este 0 -- -- 48
2017-08-14 00:00:00 15.6 8 Este 12 Este 0 -- -- 43
2017-08-13 23:00:00 20 4 Sur 15 Norte 0 -- -- 36
2017-08-13 22:00:00 24.4 12 Norte 14 Norte 0 -- -- 26
2017-08-13 21:00:00 29.2 6 Noroeste 17 Oeste 0 -- -- 22
2017-08-13 20:00:00 32 14 Noroeste 24 Noroeste 0 -- -- 18
2017-08-13 19:00:00 33.4 13 Oeste 27 Oeste 0 -- -- 17
2017-08-13 18:00:00 33.9 13 Oeste 22 Norte 0 -- -- 17
2017-08-13 17:00:00 32.8 16 Oeste 35 Oeste 0 -- -- 18
2017-08-13 16:00:00 33.5 9 Oeste 26 Noroeste 0 -- -- 18
2017-08-13 15:00:00 32 14 Sudoeste 28 Sudoeste 0 -- -- 19
2017-08-13 14:00:00 31.3 13 Noroeste 23 Noroeste 0 -- -- 20
2017-08-13 13:00:00 30.6 6 Oeste 13 Oeste 0 -- -- 19
2017-08-13 12:00:00 28.6 5 Oeste 14 Noroeste 0 -- -- 24
2017-08-13 11:00:00 26.2 4 Este 12 Este 0 -- -- 28
2017-08-13 10:00:00 21.2 8 Este 12 Este 0 -- -- 39
2017-08-13 09:00:00 17.4 7 Este 11 Este 0 -- -- 54
2017-08-13 08:00:00 8.3 8 Este 8 Este 0 -- -- 69
2017-08-13 07:00:00 8.1 3 Sudeste 10 Este 0 -- -- 69
2017-08-13 06:00:00 8.9 8 Este 18 Este 0 -- -- 66
2017-08-13 05:00:00 15.1 13 Este 18 Este 0 -- -- 50
2017-08-13 04:00:00 16 17 Nordeste 23 Nordeste 0 -- -- 48
2017-08-13 03:00:00 11.7 6 Este 13 Este 0 -- -- 52
2017-08-13 02:00:00 17.5 9 Este 16 Este 0 -- -- 42
2017-08-13 01:00:00 17.9 10 Este 17 Este 0 -- -- 40
2017-08-13 00:00:00 16.9 7 Este 23 Nordeste 0 -- -- 36
2017-08-12 23:00:00 19.9 17 Nordeste 19 Nordeste 0 -- -- 26
2017-08-12 22:00:00 21.1 11 Norte 15 Norte 0 -- -- 27
2017-08-12 21:00:00 26.8 11 Norte 18 Norte 0 -- -- 21
2017-08-12 20:00:00 31 7 Norte 14 Norte 0 -- -- 19
2017-08-12 19:00:00 31.5 8 Noroeste 22 Norte 0 -- -- 19
2017-08-12 18:00:00 32 10 Norte 20 Nordeste 0 -- -- 18
2017-08-12 17:00:00 30.4 7 Norte 19 Norte 0 -- -- 19
2017-08-12 16:00:00 30.3 9 Norte 20 Norte 0 -- -- 20
2017-08-12 15:00:00 28.6 9 Noroeste 22 Norte 0 -- -- 21
2017-08-12 14:00:00 28.6 13 Norte 30 Nordeste 0 -- -- 20
2017-08-12 13:00:00 27.5 10 Norte 21 Nordeste 0 -- -- 21
2017-08-12 12:00:00 26.9 9 Nordeste 17 Norte 0 -- -- 23
2017-08-12 11:00:00 24.1 7 Este 13 Este 0 -- -- 27
2017-08-12 10:00:00 19.4 9 Este 15 Este 0 -- -- 41
2017-08-12 09:00:00 13.6 7 Sudeste 10 Este 0 -- -- 55
2017-08-12 08:00:00 6.6 5 Sudeste 10 Este 0 -- -- 76
2017-08-12 07:00:00 8.1 5 Este 16 Nordeste 0 -- -- 71
2017-08-12 06:00:00 8.9 11 Nordeste 15 Nordeste 0 -- -- 71
2017-08-12 05:00:00 8.6 5 Sudeste 14 Este 0 -- -- 69
2017-08-12 04:00:00 10.5 7 Nordeste 12 Este 0 -- -- 63
2017-08-12 03:00:00 13.1 6 Este 20 Nordeste 0 -- -- 56
2017-08-12 02:00:00 14.4 19 Nordeste 23 Nordeste 0 -- -- 53
2017-08-12 01:00:00 11.3 6 Nordeste 20 Este 0 -- -- 59
2017-08-12 00:00:00 14.5 10 Este 19 Este 0 -- -- 47
2017-08-11 23:00:00 16 4 Sudeste 15 Nordeste 0 -- -- 40
2017-08-11 22:00:00 17.9 8 Nordeste 19 Nordeste 0 -- -- 35
2017-08-11 21:00:00 23.3 14 Nordeste 25 Nordeste 0 -- -- 27
2017-08-11 20:00:00 27 13 Nordeste 21 Nordeste 0 -- -- 22
2017-08-11 19:00:00 27.6 11 Nordeste 27 Norte 0 -- -- 19
2017-08-11 18:00:00 27.7 13 Norte 37 Nordeste 0 -- -- 19
2017-08-11 17:00:00 27 16 Norte 25 Norte 0 -- -- 20
2017-08-11 16:00:00 26.3 12 Nordeste 23 Nordeste 0 -- -- 21
2017-08-11 15:00:00 24.8 10 Norte 27 Nordeste 0 -- -- 24
2017-08-11 14:00:00 23.8 8 Nordeste 24 Nordeste 0 -- -- 25
2017-08-11 13:00:00 22.6 11 Nordeste 23 Nordeste 0 -- -- 28
2017-08-11 12:00:00 20.6 13 Norte 22 Nordeste 0 -- -- 31
2017-08-11 11:00:00 18.7 6 Nordeste 17 Este 0 -- -- 38
2017-08-11 10:00:00 15.4 11 Este 17 Este 0 -- -- 49
2017-08-11 09:00:00 11.9 9 Nordeste 15 Sudeste 0 -- -- 64
2017-08-11 08:00:00 6.7 8 Este 14 Este 0 -- -- 82
2017-08-11 07:00:00 6.7 9 Este 13 Este 0 -- -- 81
2017-08-11 06:00:00 7.9 6 Este 14 Nordeste 0 -- -- 77
2017-08-11 05:00:00 8 7 Este 14 Este 0 -- -- 77
2017-08-11 04:00:00 8.1 8 Este 11 Este 0 -- -- 76
2017-08-11 03:00:00 8.6 6 Este 12 Este 0 -- -- 74
2017-08-11 02:00:00 10 8 Este 21 Nordeste 0 -- -- 68
2017-08-11 01:00:00 12.2 17 Nordeste 32 Nordeste 0 -- -- 62
2017-08-11 00:00:00 13.4 22 Nordeste 31 Nordeste 0 -- -- 57
2017-08-10 23:00:00 15 19 Nordeste 31 Nordeste 0 -- -- 52
2017-08-10 22:00:00 16.6 17 Nordeste 23 Nordeste 0 -- -- 46
2017-08-10 21:00:00 19.9 16 Nordeste 26 Nordeste 0 -- -- 38
2017-08-10 20:00:00 22.4 19 Nordeste 30 Nordeste 0 -- -- 32
2017-08-10 19:00:00 23.6 14 Norte 30 Norte 0 -- -- 30
2017-08-10 18:00:00 24.6 19 Nordeste 34 Norte 0 -- -- 30
2017-08-10 17:00:00 23.6 15 Norte 31 Nordeste 0 -- -- 31
2017-08-10 16:00:00 23.6 17 Nordeste 30 Norte 0 -- -- 34
2017-08-10 15:00:00 22.6 18 Norte 36 Nordeste 0 -- -- 35
2017-08-10 14:00:00 21.7 17 Nordeste 36 Nordeste 0 -- -- 36
2017-08-10 13:00:00 19.7 22 Nordeste 33 Nordeste 0 -- -- 42
2017-08-10 12:00:00 17.7 23 Nordeste 37 Nordeste 0 -- -- 50
2017-08-10 11:00:00 16.8 24 Nordeste 39 Nordeste 0 -- -- 53
2017-08-10 10:00:00 15.3 22 Nordeste 33 Nordeste 0 -- -- 58
2017-08-10 09:00:00 12.1 6 Este 14 Norte 0 -- -- 68
2017-08-10 08:00:00 6.2 4 Este 14 Nordeste 0 -- -- 83
2017-08-10 07:00:00 5.3 10 Nordeste 13 Nordeste 0 -- -- 86
2017-08-10 06:00:00 6 11 Nordeste 18 Nordeste 0 -- -- 88
2017-08-10 05:00:00 6.3 4 Este 15 Nordeste 0 -- -- 82
2017-08-10 04:00:00 7.6 12 Nordeste 18 Nordeste 0 -- -- 78
2017-08-10 03:00:00 7.5 11 Nordeste 26 Nordeste 0 -- -- 75
2017-08-10 02:00:00 9.8 18 Nordeste 33 Nordeste 0 -- -- 68
2017-08-10 01:00:00 10.9 22 Nordeste 31 Nordeste 0 -- -- 64
2017-08-10 00:00:00 11.6 22 Nordeste 37 Nordeste 0 -- -- 58
2017-08-09 23:00:00 12.9 25 Nordeste 36 Norte 0 -- -- 54
2017-08-09 22:00:00 14.4 27 Nordeste 42 Nordeste 0 -- -- 48
2017-08-09 21:00:00 17.2 30 Nordeste 39 Nordeste 0 -- -- 40
2017-08-09 20:00:00 19.7 28 Nordeste 40 Nordeste 0 -- -- 35
2017-08-09 19:00:00 21.8 23 Nordeste 40 Nordeste 0 -- -- 31
2017-08-09 18:00:00 22.3 18 Norte 38 Norte 0 -- -- 31
2017-08-09 17:00:00 23.1 20 Nordeste 37 Norte 0 -- -- 31
2017-08-09 16:00:00 22.2 26 Norte 39 Nordeste 0 -- -- 35
2017-08-09 15:00:00 21.8 22 Norte 36 Norte 0 -- -- 36
2017-08-09 14:00:00 22.1 18 Norte 37 Nordeste 0 -- -- 38
2017-08-09 13:00:00 21.4 19 Norte 36 Nordeste 0 -- -- 41
2017-08-09 12:00:00 20.3 20 Norte 33 Nordeste 0 -- -- 45
2017-08-09 11:00:00 18.1 15 Nordeste 24 Norte 0 -- -- 54
2017-08-09 10:00:00 15.9 13 Norte 19 Norte 0 -- -- 61
2017-08-09 09:00:00 12.4 2 Sudeste 4 Sudeste 0 -- -- 71
2017-08-09 08:00:00 6.1 3 Oeste 6 Sur 0 -- -- 87
2017-08-09 07:00:00 3.8 2 Sudeste 8 Nordeste 0 -- -- 90
2017-08-09 06:00:00 8.9 2 Norte 18 Norte 0 -- -- 86
2017-08-09 05:00:00 10.3 14 Norte 23 Norte 0 -- -- 80
2017-08-09 04:00:00 10 5 Nordeste 13 Norte 0 -- -- 81
2017-08-09 03:00:00 11.7 9 Este 25 Norte 0 -- -- 72
2017-08-09 02:00:00 11.4 8 Este 15 Este 0 -- -- 65
2017-08-09 01:00:00 11.9 9 Este 20 Este 0 -- -- 51
2017-08-09 00:00:00 9.2 6 Este 8 Sudoeste 0 -- -- 54
2017-08-08 23:00:00 15.4 4 Oeste 12 Oeste 0 -- -- 40
2017-08-08 22:00:00 17.2 5 Oeste 13 Oeste 0 -- -- 38
2017-08-08 21:00:00 23.1 10 Noroeste 17 Oeste 0 -- -- 25
2017-08-08 20:00:00 25.6 6 Oeste 17 Oeste 0 -- -- 26
2017-08-08 19:00:00 25.9 8 Sudoeste 18 Nordeste 0 -- -- 27
2017-08-08 18:00:00 26.3 7 Noroeste 23 Norte 0 -- -- 27
2017-08-08 17:00:00 24.8 11 Noroeste 23 Oeste 0 -- -- 29
2017-08-08 16:00:00 24.3 7 Norte 24 Nordeste 0 -- -- 33
2017-08-08 15:00:00 21.9 9 Noroeste 22 Norte 0 -- -- 38
2017-08-08 14:00:00 21.6 12 Noroeste 28 Norte 0 -- -- 39
2017-08-08 13:00:00 21.2 10 Noroeste 26 Norte 0 -- -- 41
2017-08-08 12:00:00 21.3 13 Nordeste 26 Norte 0 -- -- 41
2017-08-08 11:00:00 19 12 Norte 22 Nordeste 0 -- -- 51
2017-08-08 10:00:00 17.6 12 Nordeste 23 Nordeste 0 -- -- 60
2017-08-08 09:00:00 14.1 3 Noroeste 14 Norte 0 -- -- 73
2017-08-08 08:00:00 12.7 5 Norte 11 Norte 0 -- -- 79
2017-08-08 07:00:00 11.5 5 Noroeste 8 Noroeste 0 -- -- 86
2017-08-08 06:00:00 12.3 3 Sudoeste 12 Norte 0 -- -- 83
2017-08-08 05:00:00 12.6 9 Norte 17 Norte 0 -- -- 83
2017-08-08 04:00:00 12.7 3 Norte 11 Nordeste 0 -- -- 84
2017-08-08 03:00:00 12.9 5 Norte 15 Nordeste 0 -- -- 84
2017-08-08 02:00:00 15.2 12 Norte 35 Norte 0 -- -- 77
2017-08-08 01:00:00 19.2 12 Oeste 35 Oeste 0 -- -- 48
2017-08-08 00:00:00 21.4 19 Oeste 32 Oeste 0 -- -- 38
2017-08-07 23:00:00 23.7 13 Oeste 26 Oeste 0 -- -- 25
2017-08-07 22:00:00 23.6 10 Oeste 14 Oeste 0 -- -- 26
2017-08-07 21:00:00 26.1 6 Oeste 23 Noroeste 0 -- -- 24
2017-08-07 20:00:00 28.6 14 Oeste 31 Oeste 0 -- -- 17
2017-08-07 19:00:00 29.7 19 Oeste 36 Oeste 0 -- -- 17
2017-08-07 18:00:00 30.8 25 Oeste 39 Oeste 0 -- -- 17
2017-08-07 17:00:00 30.3 17 Oeste 33 Oeste 0 -- -- 21
2017-08-07 16:00:00 30.1 16 Oeste 37 Oeste 0 -- -- 25
2017-08-07 15:00:00 29.6 16 Oeste 32 Oeste 0 -- -- 27
2017-08-07 14:00:00 29.1 19 Sudoeste 36 Oeste 0 -- -- 30
2017-08-07 13:00:00 28.1 16 Oeste 34 Oeste 0 -- -- 38
2017-08-07 12:00:00 26.8 20 Oeste 34 Oeste 0 -- -- 38
2017-08-07 11:00:00 26.3 14 Sudoeste 28 Sur 0 -- -- 41
2017-08-07 10:00:00 23.7 2 Sudeste 9 Este 0 -- -- 50
2017-08-07 09:00:00 18.7 5 Este 9 Este 0 -- -- 63
2017-08-07 08:00:00 11.8 7 Sudeste 11 Este 0 -- -- 86
2017-08-07 07:00:00 11 7 Este 10 Este 0 -- -- 88
2017-08-07 06:00:00 11.1 4 Este 9 Este 0 -- -- 86
2017-08-07 05:00:00 11.6 4 Este 7 Este 0 -- -- 83
2017-08-07 04:00:00 15.2 5 Este 13 Este 0 -- -- 71
2017-08-07 03:00:00 16.4 5 Este 13 Sudeste 0 -- -- 69
2017-08-07 02:00:00 17.5 6 Sudeste 26 Norte 0 -- -- 65
2017-08-07 01:00:00 18.9 8 Nordeste 16 Este 0 -- -- 61
2017-08-07 00:00:00 19.3 6 Sudeste 26 Norte 0 -- -- 59
2017-08-06 23:00:00 20.3 8 Nordeste 31 Norte 0 -- -- 55
2017-08-06 22:00:00 22.7 21 Norte 37 Norte 0 -- -- 48
2017-08-06 21:00:00 26.2 28 Norte 37 Norte 0 -- -- 40
2017-08-06 20:00:00 30.5 23 Norte 31 Nordeste 0 -- -- 34
2017-08-06 19:00:00 32.8 17 Norte 30 Nordeste 0 -- -- 32
2017-08-06 18:00:00 33.5 14 Norte 25 Norte 0 -- -- 32
2017-08-06 17:00:00 32.6 13 Norte 25 Norte 0 -- -- 33
2017-08-06 16:00:00 31.6 12 Nordeste 24 Nordeste 0 -- -- 35
2017-08-06 15:00:00 30.3 13 Este 32 Nordeste 0 -- -- 38
2017-08-06 14:00:00 28.7 16 Norte 31 Nordeste 0 -- -- 40
2017-08-06 13:00:00 26.5 19 Nordeste 31 Nordeste 0 -- -- 44
2017-08-06 12:00:00 25.1 22 Nordeste 33 Norte 0 -- -- 47
2017-08-06 11:00:00 22.8 21 Nordeste 31 Norte 0 -- -- 51
2017-08-06 10:00:00 20.4 21 Nordeste 32 Nordeste 0 -- -- 59
2017-08-06 09:00:00 17.1 26 Nordeste 35 Norte 0 -- -- 70
2017-08-06 08:00:00 14.5 24 Norte 34 Norte 0 -- -- 80
2017-08-06 07:00:00 13.8 23 Norte 36 Norte 0 -- -- 83
2017-08-06 06:00:00 14.2 21 Norte 30 Norte 0 -- -- 82
2017-08-06 05:00:00 14.1 11 Nordeste 24 Nordeste 0 -- -- 82
2017-08-06 04:00:00 14.5 18 Nordeste 42 Norte 0 -- -- 80
2017-08-06 03:00:00 14.8 33 Norte 48 Norte 0 -- -- 78
2017-08-06 02:00:00 15 35 Norte 53 Norte 0 -- -- 78
2017-08-06 01:00:00 15.5 39 Norte 50 Norte 0 -- -- 76
2017-08-06 00:00:00 16.8 34 Norte 44 Norte 0 -- -- 72
2017-08-05 23:00:00 19 31 Nordeste 45 Nordeste 0 -- -- 63
2017-08-05 22:00:00 21.2 30 Nordeste 44 Nordeste 0 -- -- 57
2017-08-05 21:00:00 25 32 Nordeste 45 Nordeste 0 -- -- 46
2017-08-05 20:00:00 28.7 31 Norte 44 Norte 0 -- -- 39
2017-08-05 19:00:00 32.6 24 Norte 39 Norte 0 -- -- 33
2017-08-05 18:00:00 34.9 19 Oeste 40 Noroeste 0 -- -- 25
2017-08-05 17:00:00 34.7 21 Oeste 42 Noroeste 0 -- -- 26
2017-08-05 16:00:00 34.2 10 Noroeste 31 Oeste 0 -- -- 27
2017-08-05 15:00:00 33.8 11 Noroeste 21 Oeste 0 -- -- 29
2017-08-05 14:00:00 32.9 8 Norte 18 Noroeste 0 -- -- 32
2017-08-05 13:00:00 30.8 8 Oeste 21 Nordeste 0 -- -- 37
2017-08-05 12:00:00 29.8 9 Nordeste 18 Norte 0 -- -- 42
2017-08-05 11:00:00 27.9 7 Norte 20 Noroeste 0 -- -- 44
2017-08-05 10:00:00 24.7 4 Oeste 8 Sudoeste 0 -- -- 47
2017-08-05 09:00:00 22.8 0 Calma 9 Este 0 -- -- 48
2017-08-05 08:00:00 13.7 5 Este 8 Este 0 -- -- 72
2017-08-05 07:00:00 11 3 Este 4 Este 0 -- -- 80
2017-08-05 06:00:00 11.7 2 Este 3 Este 0 -- -- 78
2017-08-05 05:00:00 13.1 0 Calma 4 Sudoeste 0 -- -- 74
2017-08-05 04:00:00 15.4 2 Oeste 9 Este 0 -- -- 67
2017-08-05 03:00:00 15.9 5 Este 11 Este 0 -- -- 64
2017-08-05 02:00:00 16.3 3 Sudeste 5 Sudeste 0 -- -- 62
2017-08-05 01:00:00 18.2 2 Este 5 Oeste 0 -- -- 57
2017-08-05 00:00:00 23.3 5 Oeste 14 Oeste 0 -- -- 46
2017-08-04 23:00:00 21.5 3 Oeste 8 Oeste 0 -- -- 53
2017-08-04 22:00:00 26.4 3 Oeste 9 Noroeste 0 -- -- 41
2017-08-04 21:00:00 32.6 8 Oeste 19 Oeste 0 -- -- 28
2017-08-04 20:00:00 34.6 13 Oeste 25 Oeste 0 -- -- 25
2017-08-04 19:00:00 35.7 7 Oeste 22 Oeste 0 -- -- 25
2017-08-04 18:00:00 35.7 10 Sudoeste 24 Noroeste 0 -- -- 27
2017-08-04 17:00:00 35.1 11 Oeste 22 Noroeste 0 -- -- 30
2017-08-04 16:00:00 34.2 12 Noroeste 25 Oeste 0 -- -- 31
2017-08-04 15:00:00 33 8 Norte 19 Noroeste 0 -- -- 34
2017-08-04 14:00:00 31.3 10 Noroeste 20 Noroeste 0 -- -- 38
2017-08-04 13:00:00 29.5 8 Oeste 18 Sudoeste 0 -- -- 43
2017-08-04 12:00:00 28 7 Oeste 15 Oeste 0 -- -- 47
2017-08-04 11:00:00 25.7 7 Oeste 15 Sudoeste 0 -- -- 52
2017-08-04 10:00:00 23.8 6 Sudoeste 10 Sudoeste 0 -- -- 57
2017-08-04 09:00:00 20.4 0 Calma 4 Sur 0 -- -- 63
2017-08-04 08:00:00 14.2 0 Calma 4 Sudeste 0 -- -- 79
2017-08-04 07:00:00 12.1 3 Sudeste 4 Este 0 -- -- 85
2017-08-04 06:00:00 12.6 0 Calma 4 Sudeste 0 -- -- 86
2017-08-04 05:00:00 13.5 3 Este 5 Sudeste 0 -- -- 77
2017-08-04 04:00:00 14.7 2 Sudeste 5 Este 0 -- -- 75
2017-08-04 03:00:00 15 0 Calma 3 Sudoeste 0 -- -- 70
2017-08-04 02:00:00 17.1 2 Sudoeste 3 Sudoeste 0 -- -- 68
2017-08-04 01:00:00 18.2 0 Calma 6 Este 0 -- -- 61
2017-08-04 00:00:00 19.7 2 Nordeste 6 Sudoeste 0 -- -- 56
2017-08-03 23:00:00 24.9 5 Oeste 13 Oeste 0 -- -- 45
2017-08-03 22:00:00 27.6 9 Oeste 22 Oeste 0 -- -- 39
2017-08-03 21:00:00 31 12 Oeste 26 Oeste 0 -- -- 34
2017-08-03 20:00:00 33 11 Oeste 28 Sur 0 -- -- 29
2017-08-03 19:00:00 33.5 15 Oeste 30 Sudoeste 0 -- -- 22
2017-08-03 18:00:00 33.7 17 Oeste 30 Oeste 0 -- -- 22
2017-08-03 17:00:00 34 12 Oeste 29 Noroeste 0 -- -- 21
2017-08-03 16:00:00 32.7 15 Oeste 33 Oeste 0 -- -- 21
2017-08-03 15:00:00 31.7 13 Sudoeste 25 Sudoeste 0 -- -- 24
2017-08-03 14:00:00 30.6 11 Sudoeste 22 Oeste 0 -- -- 26
2017-08-03 13:00:00 29 8 Oeste 21 Oeste 0 -- -- 30
2017-08-03 12:00:00 27.3 8 Noroeste 15 Noroeste 0 -- -- 36
2017-08-03 11:00:00 24.5 7 Oeste 14 Oeste 0 -- -- 40
2017-08-03 10:00:00 21.6 7 Sudoeste 13 Sudoeste 0 -- -- 40
2017-08-03 09:00:00 19.6 2 Este 4 Este 0 -- -- 38
2017-08-03 08:00:00 8.9 5 Este 8 Este 0 -- -- 70
2017-08-03 07:00:00 7.6 0 Calma 6 Este 0 -- -- 73
2017-08-03 06:00:00 8.3 3 Sudeste 6 Este 0 -- -- 70
2017-08-03 05:00:00 8.9 6 Este 6 Sudeste 0 -- -- 68
2017-08-03 04:00:00 9.4 4 Sudeste 5 Este 0 -- -- 64
2017-08-03 03:00:00 11.1 2 Este 3 Sudeste 0 -- -- 59
2017-08-03 02:00:00 12.8 4 Sudeste 8 Este 0 -- -- 57
2017-08-03 01:00:00 13.7 8 Este 10 Este 0 -- -- 51
2017-08-03 00:00:00 15.5 6 Este 8 Sudoeste 0 -- -- 45
2017-08-02 23:00:00 19.2 3 Sudoeste 8 Sur 0 -- -- 40
2017-08-02 22:00:00 22.9 3 Oeste 15 Noroeste 0 -- -- 34
2017-08-02 21:00:00 30.1 11 Oeste 26 Oeste 0 -- -- 20
2017-08-02 20:00:00 32 15 Oeste 27 Oeste 0 -- -- 20
2017-08-02 19:00:00 33 11 Oeste 31 Oeste 0 -- -- 21
2017-08-02 18:00:00 32.8 14 Oeste 34 Oeste 0 -- -- 21
2017-08-02 17:00:00 32.3 17 Oeste 33 Oeste 0 -- -- 21
2017-08-02 16:00:00 32.2 12 Noroeste 30 Oeste 0 -- -- 21
2017-08-02 15:00:00 31.2 4 Oeste 26 Sudoeste 0 -- -- 23
2017-08-02 14:00:00 30.4 10 Noroeste 21 Noroeste 0 -- -- 26
2017-08-02 13:00:00 28.7 8 Sudoeste 14 Sur 0 -- -- 28
2017-08-02 12:00:00 26.9 4 Sudoeste 10 Noroeste 0 -- -- 32
2017-08-02 11:00:00 23.9 7 Noroeste 12 Oeste 0 -- -- 32
2017-08-02 10:00:00 22.2 2 Este 6 Sur 0 -- -- 38
2017-08-02 09:00:00 17.5 0 Calma 6 Este 0 -- -- 47
2017-08-02 08:00:00 10.1 2 Este 8 Este 0 -- -- 73
2017-08-02 07:00:00 7 4 Este 6 Este 0 -- -- 80
2017-08-02 06:00:00 8.1 3 Este 6 Este 0 -- -- 79
2017-08-02 05:00:00 8.8 3 Sudeste 5 Sudeste 0 -- -- 74
2017-08-02 04:00:00 9.9 0 Calma 6 Este 0 -- -- 75
2017-08-02 03:00:00 10.9 4 Este 5 Este 0 -- -- 68
2017-08-02 02:00:00 11.6 3 Este 4 Este 0 -- -- 66
2017-08-02 01:00:00 13.5 4 Este 5 Este 0 -- -- 59
2017-08-02 00:00:00 15.9 3 Este 8 Oeste 0 -- -- 52
2017-08-01 23:00:00 19.3 2 Oeste 12 Norte 0 -- -- 45
2017-08-01 22:00:00 22.1 5 Norte 10 Noroeste 0 -- -- 38
2017-08-01 21:00:00 27 6 Oeste 22 Oeste 0 -- -- 28
2017-08-01 20:00:00 28.8 15 Noroeste 26 Noroeste 0 -- -- 27
2017-08-01 19:00:00 30.3 14 Oeste 29 Oeste 0 -- -- 26
2017-08-01 18:00:00 30.4 18 Oeste 36 Oeste 0 -- -- 27
2017-08-01 17:00:00 30.1 14 Oeste 27 Oeste 0 -- -- 26
2017-08-01 16:00:00 29.5 16 Oeste 30 Oeste 0 -- -- 28
2017-08-01 15:00:00 28.2 8 Sudoeste 21 Sudoeste 0 -- -- 28
2017-08-01 14:00:00 27.6 5 Este 16 Sudoeste 0 -- -- 31
2017-08-01 13:00:00 25.8 4 Sudoeste 18 Sudoeste 0 -- -- 36
2017-08-01 12:00:00 23.8 6 Noroeste 12 Noroeste 0 -- -- 41
2017-08-01 11:00:00 21.6 8 Noroeste 13 Oeste 0 -- -- 48
2017-08-01 10:00:00 18.5 4 Sudoeste 6 Sudoeste 0 -- -- 54
2017-08-01 09:00:00 16.5 2 Sudeste 5 Este 0 -- -- 54
2017-08-01 08:00:00 9.7 4 Este 8 Este 0 -- -- 77
2017-08-01 07:00:00 9 2 Este 4 Este 0 -- -- 76
2017-08-01 06:00:00 10.3 0 Calma 3 Sur 0 -- -- 72
2017-08-01 05:00:00 12.9 0 Calma 5 Sur 0 -- -- 66
2017-08-01 04:00:00 15.3 4 Noroeste 9 Este 0 -- -- 57
2017-08-01 03:00:00 15.5 3 Oeste 7 Noroeste 0 -- -- 62
2017-08-01 02:00:00 15.7 3 Sur 6 Sudeste 0 -- -- 60
2017-08-01 01:00:00 17.1 0 Calma 7 Noroeste 0 -- -- 51
2017-08-01 00:00:00 18.3 5 Oeste 7 Oeste 0 -- -- 50
2017-07-31 23:00:00 20.8 5 Oeste 17 Noroeste 0 -- -- 45
2017-07-31 22:00:00 22.5 14 Noroeste 27 Noroeste 0 -- -- 40
2017-07-31 21:00:00 25.1 12 Noroeste 26 Noroeste 0 -- -- 34
2017-07-31 20:00:00 27.1 19 Noroeste 32 Noroeste 0 -- -- 26
2017-07-31 19:00:00 27.9 22 Noroeste 36 Noroeste 0 -- -- 27
2017-07-31 18:00:00 29 16 Noroeste 34 Noroeste 0 -- -- 25
2017-07-31 17:00:00 29.5 14 Oeste 31 Oeste 0 -- -- 23
2017-07-31 16:00:00 29.6 17 Oeste 45 Oeste 0 -- -- 26
2017-07-31 15:00:00 28.7 17 Oeste 32 Sudoeste 0 -- -- 25
2017-07-31 14:00:00 28.5 15 Oeste 27 Noroeste 0 -- -- 29
2017-07-31 13:00:00 25.5 14 Oeste 25 Oeste 0 -- -- 41
2017-07-31 12:00:00 24.1 12 Oeste 19 Sur 0 -- -- 42
2017-07-31 11:00:00 21 9 Sudoeste 22 Oeste 0 -- -- 54
2017-07-31 10:00:00 19 9 Sudoeste 19 Oeste 0 -- -- 56
2017-07-31 09:00:00 16 4 Sudeste 7 Este 0 -- -- 56
2017-07-31 08:00:00 8.9 4 Este 7 Este 0 -- -- 79
2017-07-31 07:00:00 6.7 2 Sudeste 6 Nordeste 0 -- -- 84
2017-07-31 06:00:00 8.4 0 Calma 4 Sudeste 0 -- -- 79
2017-07-31 05:00:00 8.8 4 Sudeste 10 Oeste 0 -- -- 73
2017-07-31 04:00:00 14 3 Sudoeste 9 Este 0 -- -- 80
2017-07-31 03:00:00 14 7 Este 10 Este 0 -- -- 63
2017-07-31 02:00:00 14 5 Nordeste 9 Sudeste 0 -- -- 52
2017-07-31 01:00:00 15.1 6 Sudeste 10 Este 0 -- -- 50
2017-07-31 00:00:00 18.3 2 Sur 12 Oeste 0 -- -- 41
2017-07-30 23:00:00 21.3 5 Oeste 14 Noroeste 0 -- -- 34
2017-07-30 22:00:00 24.9 10 Noroeste 14 Noroeste 0 -- -- 27
2017-07-30 21:00:00 29.2 12 Noroeste 22 Noroeste 0 -- -- 23
2017-07-30 20:00:00 30.6 14 Oeste 28 Oeste 0 -- -- 22
2017-07-30 19:00:00 32.5 15 Oeste 31 Oeste 0 -- -- 21
2017-07-30 18:00:00 33 19 Oeste 41 Oeste 0 -- -- 23
2017-07-30 17:00:00 32.5 21 Oeste 40 Sudoeste 0 -- -- 23
2017-07-30 16:00:00 31.9 19 Oeste 33 Sudoeste 0 -- -- 22
2017-07-30 15:00:00 31 18 Oeste 33 Oeste 0 -- -- 24
2017-07-30 14:00:00 30.2 11 Oeste 24 Oeste 0 -- -- 28
2017-07-30 13:00:00 28.2 10 Sudoeste 24 Sudoeste 0 -- -- 34
2017-07-30 12:00:00 25.8 9 Sur 18 Sudoeste 0 -- -- 37
2017-07-30 11:00:00 23.4 8 Oeste 15 Noroeste 0 -- -- 45
2017-07-30 10:00:00 20.9 9 Sudoeste 14 Sudoeste 0 -- -- 53
2017-07-30 09:00:00 18.5 4 Sudoeste 8 Sudoeste 0 -- -- 55
2017-07-30 08:00:00 12.6 2 Este 4 Este 0 -- -- 73
2017-07-30 07:00:00 11.5 4 Este 6 Este 0 -- -- 72
2017-07-30 06:00:00 12.8 3 Este 6 Este 0 -- -- 68
2017-07-30 05:00:00 12 6 Este 10 Este 0 -- -- 69
2017-07-30 04:00:00 13.4 0 Calma 4 Noroeste 0 -- -- 68
2017-07-30 03:00:00 15 0 Calma 5 Sur 0 -- -- 65
2017-07-30 02:00:00 15.4 3 Nordeste 7 Este 0 -- -- 59
2017-07-30 01:00:00 16.5 8 Este 9 Este 0 -- -- 54
2017-07-30 00:00:00 21.4 5 Oeste 7 Oeste 0 -- -- 43
2017-07-29 23:00:00 21 3 Oeste 9 Oeste 0 -- -- 44
2017-07-29 22:00:00 24.6 4 Noroeste 17 Oeste 0 -- -- 38
2017-07-29 21:00:00 31.1 11 Oeste 28 Oeste 0 -- -- 23
2017-07-29 20:00:00 33 13 Oeste 38 Oeste 0 -- -- 22
2017-07-29 19:00:00 34.1 13 Sudoeste 37 Oeste 0 -- -- 20
2017-07-29 18:00:00 33.5 14 Oeste 26 Oeste 0 -- -- 22
2017-07-29 17:00:00 33.1 14 Sudoeste 26 Oeste 0 -- -- 24
2017-07-29 16:00:00 31.9 16 Oeste 32 Oeste 0 -- -- 26
2017-07-29 15:00:00 30.8 14 Oeste 30 Oeste 0 -- -- 30
2017-07-29 14:00:00 30.1 13 Oeste 33 Sudoeste 0 -- -- 32
2017-07-29 13:00:00 27.8 14 Sudoeste 26 Sudoeste 0 -- -- 41
2017-07-29 12:00:00 26 12 Sudoeste 32 Oeste 0 -- -- 47
2017-07-29 11:00:00 24.5 10 Sudoeste 19 Oeste 0 -- -- 50
2017-07-29 10:00:00 21.6 11 Oeste 21 Oeste 0 -- -- 55
2017-07-29 09:00:00 20.2 2 Sudoeste 5 Sudoeste 0 -- -- 49
2017-07-29 08:00:00 13 0 Calma 3 Sur 0 -- -- 72
2017-07-29 07:00:00 9.5 3 Sudeste 9 Sur 0 -- -- 79
2017-07-29 06:00:00 10.3 0 Calma 4 Sur 0 -- -- 77
2017-07-29 05:00:00 10.5 0 Calma 4 Sur 0 -- -- 78
2017-07-29 04:00:00 12 0 Calma 3 Sur 0 -- -- 74
2017-07-29 03:00:00 13.9 0 Calma 9 Sudeste 0 -- -- 65
2017-07-29 02:00:00 14 5 Este 6 Este 0 -- -- 64
2017-07-29 01:00:00 15.4 0 Calma 3 Sur 0 -- -- 66
2017-07-29 00:00:00 18.1 0 Calma 6 Sudoeste 0 -- -- 57
2017-07-28 23:00:00 22.3 2 Sudoeste 13 Norte 0 -- -- 42
2017-07-28 22:00:00 26.8 9 Noroeste 15 Norte 0 -- -- 35
2017-07-28 21:00:00 31 12 Noroeste 22 Oeste 0 -- -- 30
2017-07-28 20:00:00 32.9 10 Noroeste 26 Oeste 0 -- -- 28
2017-07-28 19:00:00 33.7 9 Oeste 27 Oeste 0 -- -- 26
2017-07-28 18:00:00 33.7 13 Oeste 28 Oeste 0 -- -- 25
2017-07-28 17:00:00 33.5 14 Oeste 29 Sudoeste 0 -- -- 19
2017-07-28 16:00:00 33 17 Oeste 32 Oeste 0 -- -- 20
2017-07-28 15:00:00 31.8 11 Oeste 25 Oeste 0 -- -- 25
2017-07-28 14:00:00 30.3 10 Sudoeste 25 Sudoeste 0 -- -- 31
2017-07-28 13:00:00 28.5 11 Noroeste 24 Oeste 0 -- -- 38
2017-07-28 12:00:00 26.4 11 Sudoeste 21 Sur 0 -- -- 46
2017-07-28 11:00:00 24.5 8 Oeste 14 Oeste 0 -- -- 53
2017-07-28 10:00:00 22.5 5 Oeste 10 Sudoeste 0 -- -- 58
2017-07-28 09:00:00 19.7 0 Calma 4 Este 0 -- -- 56
2017-07-28 08:00:00 12.1 3 Este 6 Este 0 -- -- 70
2017-07-28 07:00:00 9.5 4 Este 4 Sudeste 0 -- -- 75
2017-07-28 06:00:00 10.3 0 Calma 2 Sur 0 -- -- 72
2017-07-28 05:00:00 11.8 0 Calma 4 Sudoeste 0 -- -- 72
2017-07-28 04:00:00 13.5 0 Calma 13 Este 0 -- -- 66
2017-07-28 03:00:00 13.9 7 Este 12 Este 0 -- -- 65
2017-07-28 02:00:00 17.5 4 Oeste 9 Oeste 0 -- -- 57
2017-07-28 01:00:00 14.3 3 Sudoeste 5 Sudoeste 0 -- -- 54
2017-07-28 00:00:00 16 4 Sudeste 5 Sudeste 0 -- -- 45
2017-07-27 23:00:00 18.5 3 Oeste 13 Noroeste 0 -- -- 42
2017-07-27 22:00:00 26 7 Noroeste 16 Oeste 0 -- -- 27
2017-07-27 21:00:00 31.5 9 Oeste 25 Oeste 0 -- -- 18
2017-07-27 20:00:00 33.7 17 Oeste 28 Oeste 0 -- -- 14
2017-07-27 19:00:00 34.3 16 Oeste 34 Oeste 0 -- -- 15
2017-07-27 18:00:00 34.3 14 Oeste 33 Oeste 0 -- -- 20
2017-07-27 17:00:00 33.5 15 Oeste 35 Oeste 0 -- -- 21
2017-07-27 16:00:00 33.3 17 Oeste 35 Oeste 0 -- -- 22
2017-07-27 15:00:00 32.3 12 Oeste 31 Noroeste 0 -- -- 25
2017-07-27 14:00:00 30.8 14 Sudoeste 27 Sudoeste 0 -- -- 28
2017-07-27 13:00:00 29.2 11 Sudoeste 21 Sudoeste 0 -- -- 30
2017-07-27 12:00:00 27.9 10 Oeste 17 Oeste 0 -- -- 33
2017-07-27 11:00:00 26.4 6 Sudoeste 14 Sur 0 -- -- 36
2017-07-27 10:00:00 23.4 4 Sudoeste 8 Sudoeste 0 -- -- 40
2017-07-27 09:00:00 19.1 2 Sudeste 4 Sudeste 0 -- -- 50
2017-07-27 08:00:00 11.4 2 Este 4 Este 0 -- -- 72
2017-07-27 07:00:00 8.8 3 Este 6 Este 0 -- -- 79
2017-07-27 06:00:00 8.9 5 Este 7 Este 0 -- -- 80
2017-07-27 05:00:00 10.6 3 Este 7 Este 0 -- -- 74
2017-07-27 04:00:00 10.9 3 Sudeste 9 Este 0 -- -- 74
2017-07-27 03:00:00 13.1 4 Sudoeste 9 Oeste 0 -- -- 67
2017-07-27 02:00:00 13.4 4 Este 7 Este 0 -- -- 65
2017-07-27 01:00:00 14.7 6 Este 10 Este 0 -- -- 59
2017-07-27 00:00:00 16.2 5 Este 6 Este 0 -- -- 55
2017-07-26 23:00:00 18.7 2 Este 6 Sur 0 -- -- 48
2017-07-26 22:00:00 22.6 4 Norte 12 Norte 0 -- -- 41
2017-07-26 21:00:00 29.3 5 Noroeste 13 Norte 0 -- -- 27
2017-07-26 20:00:00 31.4 7 Oeste 19 Oeste 0 -- -- 24
2017-07-26 19:00:00 31.3 11 Noroeste 24 Noroeste 0 -- -- 24
2017-07-26 18:00:00 31.1 12 Oeste 33 Norte 0 -- -- 27
2017-07-26 17:00:00 30.6 9 Noroeste 26 Oeste 0 -- -- 28
2017-07-26 16:00:00 29.9 8 Oeste 23 Oeste 0 -- -- 31
2017-07-26 15:00:00 28.7 5 Sudoeste 21 Noroeste 0 -- -- 35
2017-07-26 14:00:00 28.3 9 Sudeste 18 Nordeste 0 -- -- 35
2017-07-26 13:00:00 26.3 6 Norte 18 Noroeste 0 -- -- 39
2017-07-26 12:00:00 25.6 6 Sudeste 20 Nordeste 0 -- -- 40
2017-07-26 11:00:00 24.4 7 Este 17 Este 0 -- -- 42
2017-07-26 10:00:00 22.1 11 Este 15 Este 0 -- -- 44
2017-07-26 09:00:00 17.3 4 Sudeste 13 Este 0 -- -- 55
2017-07-26 08:00:00 11.1 5 Este 10 Nordeste 0 -- -- 77
2017-07-26 07:00:00 8.5 3 Este 9 Nordeste 0 -- -- 83
2017-07-26 06:00:00 9.5 2 Norte 6 Este 0 -- -- 78
2017-07-26 05:00:00 10.6 2 Este 11 Este 0 -- -- 76
2017-07-26 04:00:00 11.7 7 Este 13 Nordeste 0 -- -- 71
2017-07-26 03:00:00 13.5 10 Nordeste 17 Nordeste 0 -- -- 65
2017-07-26 02:00:00 12.8 9 Nordeste 20 Nordeste 0 -- -- 69
2017-07-26 01:00:00 16 18 Nordeste 23 Nordeste 0 -- -- 58
2017-07-26 00:00:00 15.4 11 Nordeste 15 Nordeste 0 -- -- 60
2017-07-25 23:00:00 17.7 13 Nordeste 21 Nordeste 0 -- -- 52
2017-07-25 22:00:00 19.6 11 Norte 29 Nordeste 0 -- -- 44
2017-07-25 21:00:00 23.4 19 Nordeste 31 Norte 0 -- -- 36
2017-07-25 20:00:00 25.7 20 Norte 34 Nordeste 0 -- -- 32
2017-07-25 19:00:00 26.6 21 Norte 39 Nordeste 0 -- -- 27
2017-07-25 18:00:00 27.9 19 Nordeste 38 Nordeste 0 -- -- 28
2017-07-25 17:00:00 27.3 18 Norte 35 Norte 0 -- -- 28
2017-07-25 16:00:00 26.1 13 Nordeste 30 Nordeste 0 -- -- 28
2017-07-25 15:00:00 25.4 17 Norte 31 Norte 0 -- -- 29
2017-07-25 14:00:00 24.3 13 Norte 28 Nordeste 0 -- -- 34
2017-07-25 13:00:00 23.1 17 Nordeste 26 Nordeste 0 -- -- 40
2017-07-25 12:00:00 21.3 15 Nordeste 24 Nordeste 0 -- -- 46
2017-07-25 11:00:00 20.2 11 Nordeste 26 Nordeste 0 -- -- 50
2017-07-25 10:00:00 18.1 18 Norte 28 Nordeste 0 -- -- 57
2017-07-25 09:00:00 16 21 Norte 30 Norte 0 -- -- 65
2017-07-25 08:00:00 13.3 14 Norte 19 Norte 0 -- -- 75
2017-07-25 07:00:00 10.9 8 Nordeste 19 Nordeste 0 -- -- 83
2017-07-25 06:00:00 11.9 11 Nordeste 24 Norte 0 -- -- 79
2017-07-25 05:00:00 12.8 17 Nordeste 31 Norte 0 -- -- 79
2017-07-25 04:00:00 13.3 23 Norte 34 Norte 0 -- -- 78
2017-07-25 03:00:00 14.3 24 Norte 32 Nordeste 0 -- -- 75
2017-07-25 02:00:00 14.7 13 Nordeste 28 Nordeste 0 -- -- 73
2017-07-25 01:00:00 15.8 21 Nordeste 32 Nordeste 0 -- -- 69
2017-07-25 00:00:00 16.8 17 Nordeste 36 Nordeste 0 -- -- 63
2017-07-24 23:00:00 18.4 27 Nordeste 40 Nordeste 0 -- -- 59
2017-07-24 22:00:00 20.9 28 Norte 40 Norte 0 -- -- 51
2017-07-24 21:00:00 26.1 24 Norte 33 Norte 0 -- -- 37
2017-07-24 20:00:00 28.8 12 Noroeste 22 Norte 0 -- -- 27
2017-07-24 19:00:00 29.2 11 Noroeste 26 Norte 0 -- -- 27
2017-07-24 18:00:00 29 15 Norte 26 Noroeste 0 -- -- 28
2017-07-24 17:00:00 29.2 7 Norte 24 Norte 0 -- -- 31
2017-07-24 16:00:00 27.6 12 Oeste 26 Sudoeste 0 -- -- 33
2017-07-24 15:00:00 26.4 9 Este 24 Nordeste 0 -- -- 36
2017-07-24 14:00:00 26.4 7 Norte 28 Nordeste 0 -- -- 38
2017-07-24 13:00:00 24.6 11 Noroeste 35 Nordeste 0 -- -- 43
2017-07-24 12:00:00 23.7 11 Norte 23 Norte 0 -- -- 47
2017-07-24 11:00:00 22.3 13 Norte 23 Norte 0 -- -- 52
2017-07-24 10:00:00 22 10 Nordeste 19 Norte 0 -- -- 55
2017-07-24 09:00:00 19.9 2 Este 6 Nordeste 0 -- -- 66
2017-07-24 08:00:00 13.8 2 Sur 5 Norte 0 -- -- 85
2017-07-24 07:00:00 13.1 3 Noroeste 9 Oeste 0 -- -- 88
2017-07-24 06:00:00 12.4 2 Sudeste 11 Norte 0 -- -- 89
2017-07-24 05:00:00 13.4 0 Calma 9 Noroeste 0 -- -- 85
2017-07-24 04:00:00 15.3 4 Noroeste 8 Noroeste 0 -- -- 78
2017-07-24 03:00:00 16.5 2 Sudoeste 33 Norte 0 -- -- 73
2017-07-24 02:00:00 18.1 23 Norte 31 Norte 0 -- -- 66
2017-07-24 01:00:00 19.6 13 Norte 25 Noroeste 0 -- -- 52
2017-07-24 00:00:00 15.6 0 Calma 7 Sudeste 0 -- -- 57
2017-07-23 23:00:00 16.4 3 Sudeste 6 Sudeste 0 -- -- 53
2017-07-23 22:00:00 21.8 0 Calma 17 Noroeste 0 -- -- 43
2017-07-23 21:00:00 27.8 13 Noroeste 24 Noroeste 0 -- -- 27
2017-07-23 20:00:00 29.5 16 Noroeste 32 Noroeste 0 -- -- 25
2017-07-23 19:00:00 30.1 14 Oeste 31 Noroeste 0 -- -- 25
2017-07-23 18:00:00 30 13 Noroeste 30 Oeste 0 -- -- 28
2017-07-23 17:00:00 29.9 8 Oeste 25 Noroeste 0 -- -- 29
2017-07-23 16:00:00 29.3 14 Noroeste 32 Noroeste 0 -- -- 28
2017-07-23 15:00:00 28.6 14 Noroeste 27 Oeste 0 -- -- 33
2017-07-23 14:00:00 27.4 10 Sudoeste 25 Oeste 0 -- -- 36
2017-07-23 13:00:00 26.7 11 Norte 21 Norte 0 -- -- 41
2017-07-23 12:00:00 25.4 8 Noroeste 17 Oeste 0 -- -- 44
2017-07-23 11:00:00 23.4 5 Sudoeste 11 Oeste 0 -- -- 45
2017-07-23 10:00:00 20.3 5 Noroeste 8 Oeste 0 -- -- 52
2017-07-23 09:00:00 17 4 Sudeste 7 Sudeste 0 -- -- 62
2017-07-23 08:00:00 11 2 Este 8 Este 0 -- -- 85
2017-07-23 07:00:00 7.5 5 Este 13 Este 0 -- -- 92
2017-07-23 06:00:00 9.6 6 Este 10 Este 0 -- -- 95
2017-07-23 05:00:00 9 6 Este 12 Nordeste 0 -- -- 86
2017-07-23 04:00:00 14.1 8 Nordeste 18 Norte 0 -- -- 82
2017-07-23 03:00:00 14.5 10 Nordeste 14 Nordeste 0 -- -- 80
2017-07-23 02:00:00 15.7 7 Nordeste 15 Nordeste 0 -- -- 67
2017-07-23 01:00:00 13.4 2 Nordeste 5 Sudeste 0 -- -- 64
2017-07-23 00:00:00 15.4 2 Sudoeste 6 Oeste 0 -- -- 55
2017-07-22 23:00:00 19.8 5 Oeste 11 Oeste 0 -- -- 45
2017-07-22 22:00:00 22.2 7 Noroeste 10 Oeste 0 -- -- 39
2017-07-22 21:00:00 27.9 8 Oeste 18 Oeste 0 -- -- 24
2017-07-22 20:00:00 29 14 Sudoeste 31 Sudoeste 0 -- -- 20
2017-07-22 19:00:00 29.3 14 Oeste 34 Oeste 0 -- -- 24
2017-07-22 18:00:00 29 18 Oeste 32 Oeste 0 -- -- 25
2017-07-22 17:00:00 28.7 14 Sudoeste 33 Oeste 0 -- -- 27
2017-07-22 16:00:00 28 12 Oeste 30 Oeste 0 -- -- 27
2017-07-22 15:00:00 26.9 14 Sudoeste 30 Oeste 0 -- -- 30
2017-07-22 14:00:00 26 11 Oeste 25 Oeste 0 -- -- 33
2017-07-22 13:00:00 23.9 12 Oeste 22 Oeste 0 -- -- 38
2017-07-22 12:00:00 22.8 8 Sudoeste 19 Sudoeste 0 -- -- 41
2017-07-22 11:00:00 21 7 Oeste 15 Sudoeste 0 -- -- 47
2017-07-22 10:00:00 17.4 9 Oeste 16 Oeste 0 -- -- 53
2017-07-22 09:00:00 15.4 0 Calma 4 Sudeste 0 -- -- 56
2017-07-22 08:00:00 9.3 0 Calma 5 Este 0 -- -- 76
2017-07-22 07:00:00 5.6 4 Este 5 Sudeste 0 -- -- 84
2017-07-22 06:00:00 6.2 0 Calma 5 Sudeste 0 -- -- 83
2017-07-22 05:00:00 7.4 0 Calma 7 Sudoeste 0 -- -- 81
2017-07-22 04:00:00 9 0 Calma 4 Este 0 -- -- 72
2017-07-22 03:00:00 10.9 3 Nordeste 13 Este 0 -- -- 65
2017-07-22 02:00:00 11.3 5 Sudoeste 12 Este 0 -- -- 64
2017-07-22 01:00:00 14.6 5 Oeste 8 Oeste 0 -- -- 53
2017-07-22 00:00:00 13.4 0 Calma 5 Oeste 0 -- -- 57